sensor_id;sensor_type;location;lat;lon;timestamp;P1;durP1;ratioP1;P2;durP2;ratioP2
4810;SDS011;2419;51.276;6.472;2023-06-22T00:00:54;9.47;;;6.30;;
4810;SDS011;2419;51.276;6.472;2023-06-22T00:03:22;8.27;;;5.80;;
4810;SDS011;2419;51.276;6.472;2023-06-22T00:05:52;8.70;;;6.80;;
4810;SDS011;2419;51.276;6.472;2023-06-22T00:08:20;13.27;;;6.97;;
4810;SDS011;2419;51.276;6.472;2023-06-22T00:10:50;9.13;;;5.83;;
4810;SDS011;2419;51.276;6.472;2023-06-22T00:13:18;9.23;;;6.53;;
4810;SDS011;2419;51.276;6.472;2023-06-22T00:15:46;9.80;;;6.60;;
4810;SDS011;2419;51.276;6.472;2023-06-22T00:18:14;10.80;;;6.87;;
4810;SDS011;2419;51.276;6.472;2023-06-22T00:20:42;6.90;;;5.80;;
4810;SDS011;2419;51.276;6.472;2023-06-22T00:23:11;8.10;;;6.00;;
4810;SDS011;2419;51.276;6.472;2023-06-22T00:25:42;8.17;;;6.00;;
4810;SDS011;2419;51.276;6.472;2023-06-22T00:28:14;8.30;;;5.83;;
4810;SDS011;2419;51.276;6.472;2023-06-22T00:30:42;8.43;;;6.20;;
4810;SDS011;2419;51.276;6.472;2023-06-22T00:33:11;9.27;;;7.03;;
4810;SDS011;2419;51.276;6.472;2023-06-22T00:35:39;9.17;;;6.50;;
4810;SDS011;2419;51.276;6.472;2023-06-22T00:38:08;7.97;;;6.10;;
4810;SDS011;2419;51.276;6.472;2023-06-22T00:40:36;13.03;;;6.20;;
4810;SDS011;2419;51.276;6.472;2023-06-22T00:43:04;9.10;;;6.83;;
4810;SDS011;2419;51.276;6.472;2023-06-22T00:45:35;13.23;;;6.90;;
4810;SDS011;2419;51.276;6.472;2023-06-22T00:48:03;9.53;;;6.87;;
4810;SDS011;2419;51.276;6.472;2023-06-22T00:50:33;7.90;;;5.90;;
4810;SDS011;2419;51.276;6.472;2023-06-22T00:53:03;12.83;;;6.67;;
4810;SDS011;2419;51.276;6.472;2023-06-22T00:55:35;10.17;;;7.20;;
4810;SDS011;2419;51.276;6.472;2023-06-22T00:58:05;10.37;;;6.37;;
4810;SDS011;2419;51.276;6.472;2023-06-22T01:00:38;13.30;;;6.67;;
4810;SDS011;2419;51.276;6.472;2023-06-22T01:03:07;11.27;;;7.50;;
4810;SDS011;2419;51.276;6.472;2023-06-22T01:05:37;11.77;;;7.70;;
4810;SDS011;2419;51.276;6.472;2023-06-22T01:08:08;15.50;;;6.87;;
4810;SDS011;2419;51.276;6.472;2023-06-22T01:10:44;12.53;;;7.77;;
4810;SDS011;2419;51.276;6.472;2023-06-22T01:13:22;9.77;;;6.30;;
4810;SDS011;2419;51.276;6.472;2023-06-22T01:16:00;9.07;;;6.50;;
4810;SDS011;2419;51.276;6.472;2023-06-22T01:18:31;9.23;;;6.93;;
4810;SDS011;2419;51.276;6.472;2023-06-22T01:21:03;9.27;;;6.67;;
4810;SDS011;2419;51.276;6.472;2023-06-22T01:23:38;11.70;;;7.60;;
4810;SDS011;2419;51.276;6.472;2023-06-22T01:26:17;8.77;;;7.10;;
4810;SDS011;2419;51.276;6.472;2023-06-22T01:28:51;10.30;;;7.10;;
4810;SDS011;2419;51.276;6.472;2023-06-22T01:31:22;11.60;;;6.77;;
4810;SDS011;2419;51.276;6.472;2023-06-22T01:33:52;10.07;;;6.80;;
4810;SDS011;2419;51.276;6.472;2023-06-22T01:36:22;10.63;;;7.23;;
4810;SDS011;2419;51.276;6.472;2023-06-22T01:38:53;9.40;;;7.03;;
4810;SDS011;2419;51.276;6.472;2023-06-22T01:41:21;14.90;;;7.70;;
4810;SDS011;2419;51.276;6.472;2023-06-22T01:43:53;10.50;;;7.40;;
4810;SDS011;2419;51.276;6.472;2023-06-22T01:46:22;14.50;;;7.27;;
4810;SDS011;2419;51.276;6.472;2023-06-22T01:48:50;9.63;;;7.13;;
4810;SDS011;2419;51.276;6.472;2023-06-22T01:51:21;10.67;;;6.83;;
4810;SDS011;2419;51.276;6.472;2023-06-22T01:53:49;11.07;;;7.00;;
4810;SDS011;2419;51.276;6.472;2023-06-22T01:56:18;12.63;;;6.90;;
4810;SDS011;2419;51.276;6.472;2023-06-22T01:58:48;11.70;;;7.67;;
4810;SDS011;2419;51.276;6.472;2023-06-22T02:01:23;10.47;;;7.10;;
4810;SDS011;2419;51.276;6.472;2023-06-22T02:03:57;12.97;;;8.07;;
4810;SDS011;2419;51.276;6.472;2023-06-22T02:06:31;13.90;;;8.60;;
4810;SDS011;2419;51.276;6.472;2023-06-22T02:09:06;12.27;;;8.13;;
4810;SDS011;2419;51.276;6.472;2023-06-22T02:11:37;15.03;;;8.90;;
4810;SDS011;2419;51.276;6.472;2023-06-22T02:14:09;11.67;;;7.57;;
4810;SDS011;2419;51.276;6.472;2023-06-22T02:16:39;8.37;;;6.73;;
4810;SDS011;2419;51.276;6.472;2023-06-22T02:19:08;10.50;;;7.87;;
4810;SDS011;2419;51.276;6.472;2023-06-22T02:21:36;12.30;;;7.60;;
4810;SDS011;2419;51.276;6.472;2023-06-22T02:24:04;14.40;;;8.57;;
4810;SDS011;2419;51.276;6.472;2023-06-22T02:26:33;10.27;;;8.07;;
4810;SDS011;2419;51.276;6.472;2023-06-22T02:29:01;11.93;;;8.20;;
4810;SDS011;2419;51.276;6.472;2023-06-22T02:31:29;11.97;;;7.20;;
4810;SDS011;2419;51.276;6.472;2023-06-22T02:33:59;9.60;;;7.03;;
4810;SDS011;2419;51.276;6.472;2023-06-22T02:36:27;9.83;;;7.30;;
4810;SDS011;2419;51.276;6.472;2023-06-22T02:38:59;11.03;;;8.00;;
4810;SDS011;2419;51.276;6.472;2023-06-22T02:41:29;11.40;;;7.33;;
4810;SDS011;2419;51.276;6.472;2023-06-22T02:43:57;10.60;;;7.30;;
4810;SDS011;2419;51.276;6.472;2023-06-22T02:46:25;8.07;;;6.73;;
4810;SDS011;2419;51.276;6.472;2023-06-22T02:48:53;16.43;;;7.47;;
4810;SDS011;2419;51.276;6.472;2023-06-22T02:51:23;10.60;;;7.70;;
4810;SDS011;2419;51.276;6.472;2023-06-22T02:53:51;12.67;;;7.67;;
4810;SDS011;2419;51.276;6.472;2023-06-22T02:56:26;10.30;;;7.57;;
4810;SDS011;2419;51.276;6.472;2023-06-22T02:58:59;13.10;;;8.50;;
4810;SDS011;2419;51.276;6.472;2023-06-22T03:01:32;10.67;;;7.33;;
4810;SDS011;2419;51.276;6.472;2023-06-22T03:04:15;13.10;;;8.40;;
4810;SDS011;2419;51.276;6.472;2023-06-22T03:06:45;13.63;;;8.03;;
4810;SDS011;2419;51.276;6.472;2023-06-22T03:09:17;12.07;;;7.73;;
4810;SDS011;2419;51.276;6.472;2023-06-22T03:11:45;13.50;;;9.47;;
4810;SDS011;2419;51.276;6.472;2023-06-22T03:14:13;11.93;;;8.43;;
4810;SDS011;2419;51.276;6.472;2023-06-22T03:16:41;14.97;;;9.83;;
4810;SDS011;2419;51.276;6.472;2023-06-22T03:19:10;12.93;;;9.00;;
4810;SDS011;2419;51.276;6.472;2023-06-22T03:21:39;14.07;;;9.10;;
4810;SDS011;2419;51.276;6.472;2023-06-22T03:24:08;15.00;;;10.37;;
4810;SDS011;2419;51.276;6.472;2023-06-22T03:26:37;16.00;;;10.83;;
4810;SDS011;2419;51.276;6.472;2023-06-22T03:29:05;15.87;;;9.70;;
4810;SDS011;2419;51.276;6.472;2023-06-22T03:31:33;16.70;;;10.30;;
4810;SDS011;2419;51.276;6.472;2023-06-22T03:34:02;11.47;;;9.00;;
4810;SDS011;2419;51.276;6.472;2023-06-22T03:36:30;16.67;;;10.97;;
4810;SDS011;2419;51.276;6.472;2023-06-22T03:39:01;18.90;;;10.47;;
4810;SDS011;2419;51.276;6.472;2023-06-22T03:41:30;16.73;;;9.90;;
4810;SDS011;2419;51.276;6.472;2023-06-22T03:43:59;16.43;;;9.37;;
4810;SDS011;2419;51.276;6.472;2023-06-22T03:46:27;15.57;;;10.57;;
4810;SDS011;2419;51.276;6.472;2023-06-22T03:48:55;17.33;;;9.60;;
4810;SDS011;2419;51.276;6.472;2023-06-22T03:51:23;14.87;;;9.73;;
4810;SDS011;2419;51.276;6.472;2023-06-22T03:53:51;19.20;;;10.00;;
4810;SDS011;2419;51.276;6.472;2023-06-22T03:56:19;15.07;;;9.93;;
4810;SDS011;2419;51.276;6.472;2023-06-22T03:58:49;15.33;;;9.90;;
4810;SDS011;2419;51.276;6.472;2023-06-22T04:01:17;16.90;;;10.80;;
4810;SDS011;2419;51.276;6.472;2023-06-22T04:03:45;17.03;;;9.80;;
4810;SDS011;2419;51.276;6.472;2023-06-22T04:06:16;13.10;;;10.30;;
4810;SDS011;2419;51.276;6.472;2023-06-22T04:08:45;15.73;;;9.60;;
4810;SDS011;2419;51.276;6.472;2023-06-22T04:11:17;17.60;;;10.83;;
4810;SDS011;2419;51.276;6.472;2023-06-22T04:13:45;13.00;;;8.87;;
4810;SDS011;2419;51.276;6.472;2023-06-22T04:16:16;15.57;;;10.23;;
4810;SDS011;2419;51.276;6.472;2023-06-22T04:18:44;15.17;;;10.17;;
4810;SDS011;2419;51.276;6.472;2023-06-22T04:21:12;15.50;;;9.73;;
4810;SDS011;2419;51.276;6.472;2023-06-22T04:23:40;15.30;;;9.37;;
4810;SDS011;2419;51.276;6.472;2023-06-22T04:26:09;18.00;;;10.87;;
4810;SDS011;2419;51.276;6.472;2023-06-22T04:28:37;14.07;;;10.73;;
4810;SDS011;2419;51.276;6.472;2023-06-22T04:31:05;12.33;;;9.40;;
4810;SDS011;2419;51.276;6.472;2023-06-22T04:33:35;17.30;;;8.73;;
4810;SDS011;2419;51.276;6.472;2023-06-22T04:36:04;16.37;;;9.60;;
4810;SDS011;2419;51.276;6.472;2023-06-22T04:38:32;16.43;;;9.70;;
4810;SDS011;2419;51.276;6.472;2023-06-22T04:41:00;16.20;;;10.53;;
4810;SDS011;2419;51.276;6.472;2023-06-22T04:43:29;13.80;;;9.20;;
4810;SDS011;2419;51.276;6.472;2023-06-22T04:45:57;15.67;;;9.60;;
4810;SDS011;2419;51.276;6.472;2023-06-22T04:48:29;16.20;;;8.97;;
4810;SDS011;2419;51.276;6.472;2023-06-22T04:51:01;16.33;;;9.80;;
4810;SDS011;2419;51.276;6.472;2023-06-22T04:53:30;16.30;;;9.17;;
4810;SDS011;2419;51.276;6.472;2023-06-22T04:55:58;17.33;;;9.87;;
4810;SDS011;2419;51.276;6.472;2023-06-22T04:58:26;17.47;;;9.00;;
4810;SDS011;2419;51.276;6.472;2023-06-22T05:00:55;15.70;;;10.07;;
4810;SDS011;2419;51.276;6.472;2023-06-22T05:03:24;16.20;;;9.70;;
4810;SDS011;2419;51.276;6.472;2023-06-22T05:05:53;12.07;;;8.83;;
4810;SDS011;2419;51.276;6.472;2023-06-22T05:08:23;10.40;;;8.60;;
4810;SDS011;2419;51.276;6.472;2023-06-22T05:10:53;14.00;;;9.00;;
4810;SDS011;2419;51.276;6.472;2023-06-22T05:13:31;11.47;;;9.03;;
4810;SDS011;2419;51.276;6.472;2023-06-22T05:15:59;16.00;;;9.40;;
4810;SDS011;2419;51.276;6.472;2023-06-22T05:18:29;17.53;;;9.57;;
4810;SDS011;2419;51.276;6.472;2023-06-22T05:20:58;14.50;;;10.20;;
4810;SDS011;2419;51.276;6.472;2023-06-22T05:23:29;15.17;;;10.70;;
4810;SDS011;2419;51.276;6.472;2023-06-22T05:25:57;14.23;;;10.20;;
4810;SDS011;2419;51.276;6.472;2023-06-22T05:28:25;13.07;;;9.87;;
4810;SDS011;2419;51.276;6.472;2023-06-22T05:30:53;13.60;;;9.43;;
4810;SDS011;2419;51.276;6.472;2023-06-22T05:33:21;17.13;;;10.43;;
4810;SDS011;2419;51.276;6.472;2023-06-22T05:35:49;14.97;;;10.30;;
4810;SDS011;2419;51.276;6.472;2023-06-22T05:38:17;17.23;;;10.67;;
4810;SDS011;2419;51.276;6.472;2023-06-22T05:40:47;16.70;;;11.17;;
4810;SDS011;2419;51.276;6.472;2023-06-22T05:43:15;16.93;;;10.50;;
4810;SDS011;2419;51.276;6.472;2023-06-22T05:45:43;14.10;;;10.37;;
4810;SDS011;2419;51.276;6.472;2023-06-22T05:48:11;15.10;;;9.67;;
4810;SDS011;2419;51.276;6.472;2023-06-22T05:50:39;21.70;;;11.80;;
4810;SDS011;2419;51.276;6.472;2023-06-22T05:53:07;21.23;;;10.90;;
4810;SDS011;2419;51.276;6.472;2023-06-22T05:55:35;15.53;;;10.40;;
4810;SDS011;2419;51.276;6.472;2023-06-22T05:58:05;75.53;;;13.27;;
4810;SDS011;2419;51.276;6.472;2023-06-22T06:00:33;19.30;;;10.60;;
4810;SDS011;2419;51.276;6.472;2023-06-22T06:03:02;16.00;;;8.70;;
4810;SDS011;2419;51.276;6.472;2023-06-22T06:05:31;15.40;;;10.27;;
4810;SDS011;2419;51.276;6.472;2023-06-22T06:07:59;22.13;;;11.00;;
4810;SDS011;2419;51.276;6.472;2023-06-22T06:10:28;21.60;;;11.43;;
4810;SDS011;2419;51.276;6.472;2023-06-22T06:12:57;16.07;;;10.07;;
4810;SDS011;2419;51.276;6.472;2023-06-22T06:15:26;15.90;;;10.73;;
4810;SDS011;2419;51.276;6.472;2023-06-22T06:17:54;16.30;;;10.53;;
4810;SDS011;2419;51.276;6.472;2023-06-22T06:20:23;16.60;;;10.70;;
4810;SDS011;2419;51.276;6.472;2023-06-22T06:22:54;19.73;;;10.10;;
4810;SDS011;2419;51.276;6.472;2023-06-22T06:25:22;22.40;;;10.97;;
4810;SDS011;2419;51.276;6.472;2023-06-22T06:27:51;17.40;;;10.60;;
4810;SDS011;2419;51.276;6.472;2023-06-22T06:30:21;18.33;;;10.13;;
4810;SDS011;2419;51.276;6.472;2023-06-22T06:32:51;16.60;;;9.57;;
4810;SDS011;2419;51.276;6.472;2023-06-22T06:35:19;13.30;;;9.80;;
4810;SDS011;2419;51.276;6.472;2023-06-22T06:37:48;14.60;;;9.87;;
4810;SDS011;2419;51.276;6.472;2023-06-22T06:40:17;16.63;;;10.30;;
4810;SDS011;2419;51.276;6.472;2023-06-22T06:42:48;20.33;;;10.07;;
4810;SDS011;2419;51.276;6.472;2023-06-22T06:45:17;15.93;;;9.43;;
4810;SDS011;2419;51.276;6.472;2023-06-22T06:47:46;17.90;;;9.93;;
4810;SDS011;2419;51.276;6.472;2023-06-22T06:50:16;18.87;;;11.27;;
4810;SDS011;2419;51.276;6.472;2023-06-22T06:52:45;11.43;;;8.50;;
4810;SDS011;2419;51.276;6.472;2023-06-22T06:55:13;12.93;;;8.90;;
4810;SDS011;2419;51.276;6.472;2023-06-22T06:57:41;17.77;;;9.90;;
4810;SDS011;2419;51.276;6.472;2023-06-22T07:00:10;14.97;;;9.57;;
4810;SDS011;2419;51.276;6.472;2023-06-22T07:02:51;11.20;;;8.30;;
4810;SDS011;2419;51.276;6.472;2023-06-22T07:05:21;14.30;;;8.00;;
4810;SDS011;2419;51.276;6.472;2023-06-22T07:07:49;16.53;;;8.97;;
4810;SDS011;2419;51.276;6.472;2023-06-22T07:10:17;26.23;;;10.07;;
4810;SDS011;2419;51.276;6.472;2023-06-22T07:12:45;13.93;;;9.20;;
4810;SDS011;2419;51.276;6.472;2023-06-22T07:15:13;13.70;;;8.60;;
4810;SDS011;2419;51.276;6.472;2023-06-22T07:17:41;16.87;;;9.10;;
4810;SDS011;2419;51.276;6.472;2023-06-22T07:20:10;22.60;;;10.07;;
4810;SDS011;2419;51.276;6.472;2023-06-22T07:22:42;22.90;;;9.00;;
4810;SDS011;2419;51.276;6.472;2023-06-22T07:25:11;13.63;;;9.03;;
4810;SDS011;2419;51.276;6.472;2023-06-22T07:27:45;14.70;;;8.97;;
4810;SDS011;2419;51.276;6.472;2023-06-22T07:30:23;14.47;;;10.20;;
4810;SDS011;2419;51.276;6.472;2023-06-22T07:32:52;13.13;;;9.80;;
4810;SDS011;2419;51.276;6.472;2023-06-22T07:35:20;13.77;;;10.10;;
4810;SDS011;2419;51.276;6.472;2023-06-22T07:37:50;12.57;;;10.10;;
4810;SDS011;2419;51.276;6.472;2023-06-22T07:40:18;13.73;;;8.97;;
4810;SDS011;2419;51.276;6.472;2023-06-22T07:42:46;20.37;;;10.77;;
4810;SDS011;2419;51.276;6.472;2023-06-22T07:45:18;15.33;;;11.07;;
4810;SDS011;2419;51.276;6.472;2023-06-22T07:47:46;15.27;;;9.90;;
4810;SDS011;2419;51.276;6.472;2023-06-22T07:50:14;13.83;;;10.87;;
4810;SDS011;2419;51.276;6.472;2023-06-22T07:52:42;16.77;;;10.87;;
4810;SDS011;2419;51.276;6.472;2023-06-22T07:55:15;15.83;;;9.70;;
4810;SDS011;2419;51.276;6.472;2023-06-22T07:57:43;17.63;;;9.90;;
4810;SDS011;2419;51.276;6.472;2023-06-22T08:00:12;14.73;;;9.73;;
4810;SDS011;2419;51.276;6.472;2023-06-22T08:02:42;15.67;;;10.00;;
4810;SDS011;2419;51.276;6.472;2023-06-22T08:05:13;15.20;;;9.17;;
4810;SDS011;2419;51.276;6.472;2023-06-22T08:07:44;16.83;;;10.97;;
4810;SDS011;2419;51.276;6.472;2023-06-22T08:10:15;12.80;;;9.70;;
4810;SDS011;2419;51.276;6.472;2023-06-22T08:12:44;14.60;;;8.87;;
4810;SDS011;2419;51.276;6.472;2023-06-22T08:15:12;12.47;;;9.77;;
4810;SDS011;2419;51.276;6.472;2023-06-22T08:17:40;12.20;;;9.50;;
4810;SDS011;2419;51.276;6.472;2023-06-22T08:20:09;14.27;;;11.10;;
4810;SDS011;2419;51.276;6.472;2023-06-22T08:22:38;11.47;;;9.97;;
4810;SDS011;2419;51.276;6.472;2023-06-22T08:25:07;13.47;;;10.03;;
4810;SDS011;2419;51.276;6.472;2023-06-22T08:27:37;14.23;;;9.93;;
4810;SDS011;2419;51.276;6.472;2023-06-22T08:30:06;12.97;;;9.23;;
4810;SDS011;2419;51.276;6.472;2023-06-22T08:32:37;11.03;;;8.47;;
4810;SDS011;2419;51.276;6.472;2023-06-22T08:35:05;15.37;;;10.60;;
4810;SDS011;2419;51.276;6.472;2023-06-22T08:37:34;14.80;;;9.50;;
4810;SDS011;2419;51.276;6.472;2023-06-22T08:40:03;16.00;;;10.07;;
4810;SDS011;2419;51.276;6.472;2023-06-22T08:42:34;11.73;;;9.20;;
4810;SDS011;2419;51.276;6.472;2023-06-22T08:45:04;15.20;;;9.80;;
4810;SDS011;2419;51.276;6.472;2023-06-22T08:47:32;12.60;;;9.80;;
4810;SDS011;2419;51.276;6.472;2023-06-22T08:50:01;17.40;;;10.50;;
4810;SDS011;2419;51.276;6.472;2023-06-22T08:52:30;14.50;;;8.93;;
4810;SDS011;2419;51.276;6.472;2023-06-22T08:54:58;13.27;;;10.07;;
4810;SDS011;2419;51.276;6.472;2023-06-22T08:57:26;12.50;;;8.60;;
4810;SDS011;2419;51.276;6.472;2023-06-22T08:59:55;12.93;;;8.80;;
4810;SDS011;2419;51.276;6.472;2023-06-22T09:02:26;12.80;;;9.00;;
4810;SDS011;2419;51.276;6.472;2023-06-22T09:04:57;13.73;;;8.60;;
4810;SDS011;2419;51.276;6.472;2023-06-22T09:07:26;11.00;;;8.30;;
4810;SDS011;2419;51.276;6.472;2023-06-22T09:09:55;11.17;;;8.40;;
4810;SDS011;2419;51.276;6.472;2023-06-22T09:12:23;12.20;;;7.90;;
4810;SDS011;2419;51.276;6.472;2023-06-22T09:14:53;12.50;;;7.90;;
4810;SDS011;2419;51.276;6.472;2023-06-22T09:17:21;11.97;;;8.47;;
4810;SDS011;2419;51.276;6.472;2023-06-22T09:19:51;10.70;;;7.50;;
4810;SDS011;2419;51.276;6.472;2023-06-22T09:22:19;13.50;;;7.80;;
4810;SDS011;2419;51.276;6.472;2023-06-22T09:24:48;12.60;;;9.43;;
4810;SDS011;2419;51.276;6.472;2023-06-22T09:27:16;10.40;;;7.20;;
4810;SDS011;2419;51.276;6.472;2023-06-22T09:29:44;10.03;;;7.97;;
4810;SDS011;2419;51.276;6.472;2023-06-22T09:32:12;10.30;;;8.20;;
4810;SDS011;2419;51.276;6.472;2023-06-22T09:34:40;13.47;;;8.17;;
4810;SDS011;2419;51.276;6.472;2023-06-22T09:37:10;15.30;;;8.80;;
4810;SDS011;2419;51.276;6.472;2023-06-22T09:39:38;19.47;;;8.20;;
4810;SDS011;2419;51.276;6.472;2023-06-22T09:42:06;8.50;;;6.30;;
4810;SDS011;2419;51.276;6.472;2023-06-22T09:44:34;10.50;;;6.37;;
4810;SDS011;2419;51.276;6.472;2023-06-22T09:47:03;7.20;;;5.60;;
4810;SDS011;2419;51.276;6.472;2023-06-22T09:49:31;7.50;;;5.30;;
4810;SDS011;2419;51.276;6.472;2023-06-22T09:52:15;8.40;;;6.20;;
4810;SDS011;2419;51.276;6.472;2023-06-22T09:54:43;7.60;;;5.60;;
4810;SDS011;2419;51.276;6.472;2023-06-22T09:57:11;9.80;;;7.07;;
4810;SDS011;2419;51.276;6.472;2023-06-22T09:59:40;9.17;;;6.90;;
4810;SDS011;2419;51.276;6.472;2023-06-22T10:02:08;10.13;;;7.10;;
4810;SDS011;2419;51.276;6.472;2023-06-22T10:04:36;10.60;;;6.70;;
4810;SDS011;2419;51.276;6.472;2023-06-22T10:07:06;15.23;;;7.63;;
4810;SDS011;2419;51.276;6.472;2023-06-22T10:09:35;14.70;;;7.27;;
4810;SDS011;2419;51.276;6.472;2023-06-22T10:12:04;18.03;;;9.70;;
4810;SDS011;2419;51.276;6.472;2023-06-22T10:14:32;17.53;;;9.47;;
4810;SDS011;2419;51.276;6.472;2023-06-22T10:17:00;15.50;;;8.10;;
4810;SDS011;2419;51.276;6.472;2023-06-22T10:19:29;12.60;;;9.10;;
4810;SDS011;2419;51.276;6.472;2023-06-22T10:21:57;16.20;;;9.13;;
4810;SDS011;2419;51.276;6.472;2023-06-22T10:24:25;20.10;;;10.63;;
4810;SDS011;2419;51.276;6.472;2023-06-22T10:26:55;18.63;;;10.43;;
4810;SDS011;2419;51.276;6.472;2023-06-22T10:29:23;15.07;;;10.37;;
4810;SDS011;2419;51.276;6.472;2023-06-22T10:31:51;15.53;;;10.50;;
4810;SDS011;2419;51.276;6.472;2023-06-22T10:34:19;14.80;;;9.63;;
4810;SDS011;2419;51.276;6.472;2023-06-22T10:36:47;17.20;;;10.73;;
4810;SDS011;2419;51.276;6.472;2023-06-22T10:39:15;13.97;;;11.07;;
4810;SDS011;2419;51.276;6.472;2023-06-22T10:41:43;23.00;;;11.80;;
4810;SDS011;2419;51.276;6.472;2023-06-22T10:44:12;21.07;;;11.37;;
4810;SDS011;2419;51.276;6.472;2023-06-22T10:46:40;20.33;;;12.30;;
4810;SDS011;2419;51.276;6.472;2023-06-22T10:49:09;16.20;;;11.70;;
4810;SDS011;2419;51.276;6.472;2023-06-22T10:51:37;15.03;;;11.17;;
4810;SDS011;2419;51.276;6.472;2023-06-22T10:54:05;21.43;;;11.77;;
4810;SDS011;2419;51.276;6.472;2023-06-22T10:56:33;16.90;;;11.47;;
4810;SDS011;2419;51.276;6.472;2023-06-22T10:59:01;18.73;;;12.33;;
4810;SDS011;2419;51.276;6.472;2023-06-22T11:01:30;18.70;;;12.57;;
4810;SDS011;2419;51.276;6.472;2023-06-22T11:04:02;23.60;;;12.10;;
4810;SDS011;2419;51.276;6.472;2023-06-22T11:06:31;17.97;;;12.73;;
4810;SDS011;2419;51.276;6.472;2023-06-22T11:08:59;20.03;;;12.57;;
4810;SDS011;2419;51.276;6.472;2023-06-22T11:11:47;16.90;;;12.20;;
4810;SDS011;2419;51.276;6.472;2023-06-22T11:14:16;20.60;;;13.77;;
4810;SDS011;2419;51.276;6.472;2023-06-22T11:16:46;20.93;;;13.77;;
4810;SDS011;2419;51.276;6.472;2023-06-22T11:19:14;18.50;;;13.13;;
4810;SDS011;2419;51.276;6.472;2023-06-22T11:21:42;22.70;;;14.67;;
4810;SDS011;2419;51.276;6.472;2023-06-22T11:24:10;22.80;;;14.17;;
4810;SDS011;2419;51.276;6.472;2023-06-22T11:26:38;21.40;;;15.23;;
4810;SDS011;2419;51.276;6.472;2023-06-22T11:29:06;17.93;;;14.10;;
4810;SDS011;2419;51.276;6.472;2023-06-22T11:31:41;18.67;;;14.40;;
4810;SDS011;2419;51.276;6.472;2023-06-22T11:34:11;27.40;;;16.47;;
4810;SDS011;2419;51.276;6.472;2023-06-22T11:36:39;23.33;;;15.93;;
4810;SDS011;2419;51.276;6.472;2023-06-22T11:39:07;25.33;;;15.53;;
4810;SDS011;2419;51.276;6.472;2023-06-22T11:41:36;22.93;;;16.00;;
4810;SDS011;2419;51.276;6.472;2023-06-22T11:44:04;25.27;;;17.60;;
4810;SDS011;2419;51.276;6.472;2023-06-22T11:46:32;23.40;;;16.87;;
4810;SDS011;2419;51.276;6.472;2023-06-22T11:49:01;25.67;;;16.87;;
4810;SDS011;2419;51.276;6.472;2023-06-22T11:51:31;32.60;;;17.47;;
4810;SDS011;2419;51.276;6.472;2023-06-22T11:53:59;25.33;;;18.23;;
4810;SDS011;2419;51.276;6.472;2023-06-22T11:56:27;27.90;;;16.20;;
4810;SDS011;2419;51.276;6.472;2023-06-22T11:58:55;24.00;;;17.50;;
4810;SDS011;2419;51.276;6.472;2023-06-22T12:01:23;25.40;;;17.87;;
4810;SDS011;2419;51.276;6.472;2023-06-22T12:03:51;24.17;;;17.33;;
4810;SDS011;2419;51.276;6.472;2023-06-22T12:06:20;25.70;;;17.70;;
4810;SDS011;2419;51.276;6.472;2023-06-22T12:08:49;29.23;;;17.77;;
4810;SDS011;2419;51.276;6.472;2023-06-22T12:11:17;24.00;;;17.60;;
4810;SDS011;2419;51.276;6.472;2023-06-22T12:13:45;26.93;;;18.37;;
4810;SDS011;2419;51.276;6.472;2023-06-22T12:16:13;24.80;;;17.60;;
4810;SDS011;2419;51.276;6.472;2023-06-22T12:18:41;27.27;;;17.33;;
4810;SDS011;2419;51.276;6.472;2023-06-22T12:21:09;21.37;;;16.10;;
4810;SDS011;2419;51.276;6.472;2023-06-22T12:23:37;28.80;;;17.77;;
4810;SDS011;2419;51.276;6.472;2023-06-22T12:26:07;20.80;;;15.37;;
4810;SDS011;2419;51.276;6.472;2023-06-22T12:28:35;23.67;;;16.77;;
4810;SDS011;2419;51.276;6.472;2023-06-22T12:31:03;28.10;;;17.80;;
4810;SDS011;2419;51.276;6.472;2023-06-22T12:33:31;22.53;;;15.53;;
4810;SDS011;2419;51.276;6.472;2023-06-22T12:35:59;22.93;;;16.00;;
4810;SDS011;2419;51.276;6.472;2023-06-22T12:38:27;23.10;;;16.17;;
4810;SDS011;2419;51.276;6.472;2023-06-22T12:40:55;21.50;;;15.97;;
4810;SDS011;2419;51.276;6.472;2023-06-22T12:43:25;25.47;;;17.70;;
4810;SDS011;2419;51.276;6.472;2023-06-22T12:45:53;21.23;;;14.80;;
4810;SDS011;2419;51.276;6.472;2023-06-22T12:48:21;29.83;;;16.60;;
4810;SDS011;2419;51.276;6.472;2023-06-22T12:50:49;27.73;;;17.30;;
4810;SDS011;2419;51.276;6.472;2023-06-22T12:53:19;26.70;;;16.97;;
4810;SDS011;2419;51.276;6.472;2023-06-22T12:55:48;25.43;;;16.93;;
4810;SDS011;2419;51.276;6.472;2023-06-22T12:58:16;22.03;;;17.87;;
4810;SDS011;2419;51.276;6.472;2023-06-22T13:00:46;24.23;;;17.20;;
4810;SDS011;2419;51.276;6.472;2023-06-22T13:03:14;20.27;;;16.40;;
4810;SDS011;2419;51.276;6.472;2023-06-22T13:05:42;23.47;;;17.53;;
4810;SDS011;2419;51.276;6.472;2023-06-22T13:08:10;23.20;;;15.80;;
4810;SDS011;2419;51.276;6.472;2023-06-22T13:10:38;24.40;;;17.50;;
4810;SDS011;2419;51.276;6.472;2023-06-22T13:13:06;27.00;;;17.97;;
4810;SDS011;2419;51.276;6.472;2023-06-22T13:15:34;25.43;;;17.40;;
4810;SDS011;2419;51.276;6.472;2023-06-22T13:18:04;26.90;;;18.90;;
4810;SDS011;2419;51.276;6.472;2023-06-22T13:20:33;24.60;;;18.63;;
4810;SDS011;2419;51.276;6.472;2023-06-22T13:23:01;26.43;;;20.13;;
4810;SDS011;2419;51.276;6.472;2023-06-22T13:25:29;27.73;;;20.43;;
4810;SDS011;2419;51.276;6.472;2023-06-22T13:27:58;26.60;;;19.47;;
4810;SDS011;2419;51.276;6.472;2023-06-22T13:30:26;28.90;;;19.00;;
4810;SDS011;2419;51.276;6.472;2023-06-22T13:32:54;28.20;;;20.90;;
4810;SDS011;2419;51.276;6.472;2023-06-22T13:35:24;26.77;;;20.10;;
4810;SDS011;2419;51.276;6.472;2023-06-22T13:37:52;31.87;;;22.30;;
4810;SDS011;2419;51.276;6.472;2023-06-22T13:40:20;27.33;;;18.13;;
4810;SDS011;2419;51.276;6.472;2023-06-22T13:42:48;25.87;;;19.17;;
4810;SDS011;2419;51.276;6.472;2023-06-22T13:45:16;25.53;;;19.87;;
4810;SDS011;2419;51.276;6.472;2023-06-22T13:47:45;31.03;;;19.23;;
4810;SDS011;2419;51.276;6.472;2023-06-22T13:50:13;29.13;;;21.10;;
4810;SDS011;2419;51.276;6.472;2023-06-22T13:52:43;27.50;;;20.43;;
4810;SDS011;2419;51.276;6.472;2023-06-22T13:55:11;24.40;;;18.27;;
4810;SDS011;2419;51.276;6.472;2023-06-22T13:57:40;29.73;;;21.00;;
4810;SDS011;2419;51.276;6.472;2023-06-22T14:00:09;28.40;;;20.67;;
4810;SDS011;2419;51.276;6.472;2023-06-22T14:02:38;27.73;;;21.23;;
4810;SDS011;2419;51.276;6.472;2023-06-22T14:05:07;26.77;;;19.83;;
4810;SDS011;2419;51.276;6.472;2023-06-22T14:07:37;27.43;;;19.17;;
4810;SDS011;2419;51.276;6.472;2023-06-22T14:10:07;28.50;;;20.53;;
4810;SDS011;2419;51.276;6.472;2023-06-22T14:12:35;27.20;;;19.30;;
4810;SDS011;2419;51.276;6.472;2023-06-22T14:15:04;31.73;;;21.40;;
4810;SDS011;2419;51.276;6.472;2023-06-22T14:17:32;29.00;;;22.10;;
4810;SDS011;2419;51.276;6.472;2023-06-22T14:20:01;29.40;;;22.20;;
4810;SDS011;2419;51.276;6.472;2023-06-22T14:22:29;29.73;;;20.80;;
4810;SDS011;2419;51.276;6.472;2023-06-22T14:24:57;32.60;;;21.50;;
4810;SDS011;2419;51.276;6.472;2023-06-22T14:27:27;27.10;;;21.07;;
4810;SDS011;2419;51.276;6.472;2023-06-22T14:29:55;31.47;;;21.57;;
4810;SDS011;2419;51.276;6.472;2023-06-22T14:32:23;32.70;;;20.90;;
4810;SDS011;2419;51.276;6.472;2023-06-22T14:34:51;25.83;;;20.80;;
4810;SDS011;2419;51.276;6.472;2023-06-22T14:37:19;32.30;;;23.10;;
4810;SDS011;2419;51.276;6.472;2023-06-22T14:39:47;28.00;;;19.63;;
4810;SDS011;2419;51.276;6.472;2023-06-22T14:42:15;25.03;;;19.47;;
4810;SDS011;2419;51.276;6.472;2023-06-22T14:44:45;22.93;;;18.00;;
4810;SDS011;2419;51.276;6.472;2023-06-22T14:47:13;29.23;;;21.70;;
4810;SDS011;2419;51.276;6.472;2023-06-22T14:49:41;27.47;;;19.83;;
4810;SDS011;2419;51.276;6.472;2023-06-22T14:52:09;25.17;;;18.57;;
4810;SDS011;2419;51.276;6.472;2023-06-22T14:54:37;26.67;;;18.97;;
4810;SDS011;2419;51.276;6.472;2023-06-22T14:57:05;27.83;;;19.10;;
4810;SDS011;2419;51.276;6.472;2023-06-22T14:59:33;23.23;;;18.37;;
4810;SDS011;2419;51.276;6.472;2023-06-22T15:02:02;30.53;;;21.60;;
4810;SDS011;2419;51.276;6.472;2023-06-22T15:04:30;28.30;;;17.90;;
4810;SDS011;2419;51.276;6.472;2023-06-22T15:07:01;28.13;;;19.93;;